sensor_id;sensor_type;location;lat;lon;timestamp;P1;durP1;ratioP1;P2;durP2;ratioP2
7444;SDS011;3764;48.126;11.594;2023-02-26T00:00:15;3.03;;;1.60;;
7444;SDS011;3764;48.126;11.594;2023-02-26T00:02:47;2.42;;;1.98;;
7444;SDS011;3764;48.126;11.594;2023-02-26T00:05:14;3.08;;;1.90;;
7444;SDS011;3764;48.126;11.594;2023-02-26T00:07:42;2.90;;;1.33;;
7444;SDS011;3764;48.126;11.594;2023-02-26T00:10:10;4.30;;;2.72;;
7444;SDS011;3764;48.126;11.594;2023-02-26T00:12:38;2.95;;;2.20;;
7444;SDS011;3764;48.126;11.594;2023-02-26T00:15:06;2.45;;;1.70;;
7444;SDS011;3764;48.126;11.594;2023-02-26T00:17:40;3.20;;;2.20;;
7444;SDS011;3764;48.126;11.594;2023-02-26T00:20:11;3.03;;;1.95;;
7444;SDS011;3764;48.126;11.594;2023-02-26T00:22:41;2.10;;;1.90;;
7444;SDS011;3764;48.126;11.594;2023-02-26T00:25:09;2.88;;;2.13;;
7444;SDS011;3764;48.126;11.594;2023-02-26T00:27:38;3.53;;;2.30;;
7444;SDS011;3764;48.126;11.594;2023-02-26T00:30:06;4.05;;;2.15;;
7444;SDS011;3764;48.126;11.594;2023-02-26T00:32:36;2.75;;;2.15;;
7444;SDS011;3764;48.126;11.594;2023-02-26T00:35:05;2.53;;;1.90;;
7444;SDS011;3764;48.126;11.594;2023-02-26T00:37:38;4.13;;;2.60;;
7444;SDS011;3764;48.126;11.594;2023-02-26T00:40:27;2.42;;;2.03;;
7444;SDS011;3764;48.126;11.594;2023-02-26T00:43:01;2.38;;;2.05;;
7444;SDS011;3764;48.126;11.594;2023-02-26T00:45:29;2.83;;;2.40;;
7444;SDS011;3764;48.126;11.594;2023-02-26T00:48:05;4.40;;;2.35;;
7444;SDS011;3764;48.126;11.594;2023-02-26T00:50:41;3.53;;;2.47;;
7444;SDS011;3764;48.126;11.594;2023-02-26T00:53:19;2.50;;;2.17;;
7444;SDS011;3764;48.126;11.594;2023-02-26T00:55:52;5.40;;;2.15;;
7444;SDS011;3764;48.126;11.594;2023-02-26T00:58:19;3.58;;;2.55;;
7444;SDS011;3764;48.126;11.594;2023-02-26T01:00:46;3.42;;;2.60;;
7444;SDS011;3764;48.126;11.594;2023-02-26T01:03:13;2.85;;;2.30;;
7444;SDS011;3764;48.126;11.594;2023-02-26T01:05:41;3.25;;;2.97;;
7444;SDS011;3764;48.126;11.594;2023-02-26T01:08:11;4.25;;;3.08;;
7444;SDS011;3764;48.126;11.594;2023-02-26T01:10:44;4.05;;;2.55;;
7444;SDS011;3764;48.126;11.594;2023-02-26T01:13:12;4.90;;;3.28;;
7444;SDS011;3764;48.126;11.594;2023-02-26T01:15:39;3.22;;;2.33;;
7444;SDS011;3764;48.126;11.594;2023-02-26T01:18:12;3.08;;;2.78;;
7444;SDS011;3764;48.126;11.594;2023-02-26T01:20:44;2.92;;;2.60;;
7444;SDS011;3764;48.126;11.594;2023-02-26T01:23:15;3.50;;;3.17;;
7444;SDS011;3764;48.126;11.594;2023-02-26T01:25:47;2.53;;;2.25;;
7444;SDS011;3764;48.126;11.594;2023-02-26T01:28:16;6.78;;;2.30;;
7444;SDS011;3764;48.126;11.594;2023-02-26T01:30:44;3.72;;;2.65;;
7444;SDS011;3764;48.126;11.594;2023-02-26T01:33:13;2.28;;;2.08;;
7444;SDS011;3764;48.126;11.594;2023-02-26T01:35:48;2.22;;;1.77;;
7444;SDS011;3764;48.126;11.594;2023-02-26T01:38:20;2.17;;;1.98;;
7444;SDS011;3764;48.126;11.594;2023-02-26T01:41:09;2.83;;;2.33;;
7444;SDS011;3764;48.126;11.594;2023-02-26T01:43:50;3.20;;;2.60;;
7444;SDS011;3764;48.126;11.594;2023-02-26T01:46:27;3.90;;;1.95;;
7444;SDS011;3764;48.126;11.594;2023-02-26T01:48:59;2.17;;;1.98;;
7444;SDS011;3764;48.126;11.594;2023-02-26T01:51:41;2.55;;;2.22;;
7444;SDS011;3764;48.126;11.594;2023-02-26T01:54:13;2.90;;;2.28;;
7444;SDS011;3764;48.126;11.594;2023-02-26T01:56:43;1.98;;;1.75;;
7444;SDS011;3764;48.126;11.594;2023-02-26T01:59:13;3.08;;;2.40;;
7444;SDS011;3764;48.126;11.594;2023-02-26T02:01:48;3.03;;;2.20;;
7444;SDS011;3764;48.126;11.594;2023-02-26T02:04:16;4.18;;;2.60;;
7444;SDS011;3764;48.126;11.594;2023-02-26T02:06:43;2.33;;;2.00;;
7444;SDS011;3764;48.126;11.594;2023-02-26T02:09:12;2.10;;;1.90;;
7444;SDS011;3764;48.126;11.594;2023-02-26T02:11:46;3.45;;;2.55;;
7444;SDS011;3764;48.126;11.594;2023-02-26T02:14:27;3.53;;;2.20;;
7444;SDS011;3764;48.126;11.594;2023-02-26T02:17:06;5.03;;;2.30;;
7444;SDS011;3764;48.126;11.594;2023-02-26T02:19:43;2.63;;;2.33;;
7444;SDS011;3764;48.126;11.594;2023-02-26T02:22:45;3.25;;;2.40;;
7444;SDS011;3764;48.126;11.594;2023-02-26T02:25:36;2.40;;;2.20;;
7444;SDS011;3764;48.126;11.594;2023-02-26T02:28:23;4.60;;;2.10;;
7444;SDS011;3764;48.126;11.594;2023-02-26T02:31:02;3.10;;;2.30;;
7444;SDS011;3764;48.126;11.594;2023-02-26T02:33:33;2.85;;;2.10;;
7444;SDS011;3764;48.126;11.594;2023-02-26T02:36:06;1.70;;;1.55;;
7444;SDS011;3764;48.126;11.594;2023-02-26T02:38:40;1.88;;;1.77;;
7444;SDS011;3764;48.126;11.594;2023-02-26T02:41:12;2.97;;;2.08;;
7444;SDS011;3764;48.126;11.594;2023-02-26T02:43:44;2.40;;;1.70;;
7444;SDS011;3764;48.126;11.594;2023-02-26T02:46:15;2.30;;;1.75;;
7444;SDS011;3764;48.126;11.594;2023-02-26T02:48:46;2.15;;;1.80;;
7444;SDS011;3764;48.126;11.594;2023-02-26T02:51:19;11.07;;;2.15;;
7444;SDS011;3764;48.126;11.594;2023-02-26T02:53:51;1.80;;;1.55;;
7444;SDS011;3764;48.126;11.594;2023-02-26T02:56:22;2.00;;;1.40;;
7444;SDS011;3764;48.126;11.594;2023-02-26T02:58:54;2.97;;;1.52;;
7444;SDS011;3764;48.126;11.594;2023-02-26T03:01:25;2.00;;;1.77;;
7444;SDS011;3764;48.126;11.594;2023-02-26T03:03:55;2.13;;;1.50;;
7444;SDS011;3764;48.126;11.594;2023-02-26T03:06:26;2.78;;;2.45;;
7444;SDS011;3764;48.126;11.594;2023-02-26T03:08:53;3.10;;;1.90;;
7444;SDS011;3764;48.126;11.594;2023-02-26T03:11:20;2.30;;;1.77;;
7444;SDS011;3764;48.126;11.594;2023-02-26T03:13:48;6.80;;;1.77;;
7444;SDS011;3764;48.126;11.594;2023-02-26T03:16:21;3.28;;;2.05;;
7444;SDS011;3764;48.126;11.594;2023-02-26T03:19:07;1.80;;;1.50;;
7444;SDS011;3764;48.126;11.594;2023-02-26T03:21:45;2.38;;;2.17;;
7444;SDS011;3764;48.126;11.594;2023-02-26T03:24:22;3.50;;;2.10;;
7444;SDS011;3764;48.126;11.594;2023-02-26T03:26:55;2.45;;;1.88;;
7444;SDS011;3764;48.126;11.594;2023-02-26T03:29:27;3.10;;;2.25;;
7444;SDS011;3764;48.126;11.594;2023-02-26T03:32:06;3.03;;;2.72;;
7444;SDS011;3764;48.126;11.594;2023-02-26T03:34:38;3.25;;;2.10;;
7444;SDS011;3764;48.126;11.594;2023-02-26T03:37:10;1.70;;;1.60;;
7444;SDS011;3764;48.126;11.594;2023-02-26T03:39:43;1.77;;;1.50;;
7444;SDS011;3764;48.126;11.594;2023-02-26T03:42:14;2.30;;;1.90;;
7444;SDS011;3764;48.126;11.594;2023-02-26T03:44:46;2.70;;;1.98;;
7444;SDS011;3764;48.126;11.594;2023-02-26T03:47:18;2.40;;;1.98;;
7444;SDS011;3764;48.126;11.594;2023-02-26T03:49:48;2.85;;;1.60;;
7444;SDS011;3764;48.126;11.594;2023-02-26T03:52:19;1.58;;;1.45;;
7444;SDS011;3764;48.126;11.594;2023-02-26T03:54:52;4.15;;;1.67;;
7444;SDS011;3764;48.126;11.594;2023-02-26T03:57:23;2.47;;;2.00;;
7444;SDS011;3764;48.126;11.594;2023-02-26T03:59:50;2.70;;;1.70;;
7444;SDS011;3764;48.126;11.594;2023-02-26T04:02:19;5.13;;;1.80;;
7444;SDS011;3764;48.126;11.594;2023-02-26T04:04:52;4.50;;;1.60;;
7444;SDS011;3764;48.126;11.594;2023-02-26T04:07:22;3.95;;;1.90;;
7444;SDS011;3764;48.126;11.594;2023-02-26T04:09:50;5.63;;;1.80;;
7444;SDS011;3764;48.126;11.594;2023-02-26T04:12:19;4.30;;;1.85;;
7444;SDS011;3764;48.126;11.594;2023-02-26T04:14:47;3.90;;;2.35;;
7444;SDS011;3764;48.126;11.594;2023-02-26T04:17:14;5.32;;;2.20;;
7444;SDS011;3764;48.126;11.594;2023-02-26T04:19:42;5.03;;;2.00;;
7444;SDS011;3764;48.126;11.594;2023-02-26T04:22:10;2.35;;;1.92;;
7444;SDS011;3764;48.126;11.594;2023-02-26T04:24:37;2.42;;;1.85;;
7444;SDS011;3764;48.126;11.594;2023-02-26T04:27:04;2.42;;;2.05;;
7444;SDS011;3764;48.126;11.594;2023-02-26T04:29:31;2.25;;;2.00;;
7444;SDS011;3764;48.126;11.594;2023-02-26T04:31:58;2.75;;;1.90;;
7444;SDS011;3764;48.126;11.594;2023-02-26T04:34:25;4.70;;;1.90;;
7444;SDS011;3764;48.126;11.594;2023-02-26T04:36:54;7.88;;;2.50;;
7444;SDS011;3764;48.126;11.594;2023-02-26T04:39:22;3.55;;;2.10;;
7444;SDS011;3764;48.126;11.594;2023-02-26T04:41:49;2.85;;;1.65;;
7444;SDS011;3764;48.126;11.594;2023-02-26T04:44:16;2.20;;;1.73;;
7444;SDS011;3764;48.126;11.594;2023-02-26T04:46:43;3.20;;;1.92;;
7444;SDS011;3764;48.126;11.594;2023-02-26T04:49:10;2.47;;;2.28;;
7444;SDS011;3764;48.126;11.594;2023-02-26T04:51:37;5.95;;;2.75;;
7444;SDS011;3764;48.126;11.594;2023-02-26T04:54:06;2.28;;;1.67;;
7444;SDS011;3764;48.126;11.594;2023-02-26T04:56:33;2.58;;;1.60;;
7444;SDS011;3764;48.126;11.594;2023-02-26T04:59:00;3.42;;;2.08;;
7444;SDS011;3764;48.126;11.594;2023-02-26T05:01:27;3.30;;;2.05;;
7444;SDS011;3764;48.126;11.594;2023-02-26T05:03:54;1.95;;;1.52;;
7444;SDS011;3764;48.126;11.594;2023-02-26T05:06:21;3.95;;;2.10;;
7444;SDS011;3764;48.126;11.594;2023-02-26T05:08:48;5.70;;;1.70;;
7444;SDS011;3764;48.126;11.594;2023-02-26T05:11:17;2.30;;;1.88;;
7444;SDS011;3764;48.126;11.594;2023-02-26T05:13:44;1.70;;;1.60;;
7444;SDS011;3764;48.126;11.594;2023-02-26T05:16:12;2.70;;;1.90;;
7444;SDS011;3764;48.126;11.594;2023-02-26T05:18:39;2.45;;;2.03;;
7444;SDS011;3764;48.126;11.594;2023-02-26T05:21:06;2.50;;;2.00;;
7444;SDS011;3764;48.126;11.594;2023-02-26T05:23:33;2.13;;;1.65;;
7444;SDS011;3764;48.126;11.594;2023-02-26T05:26:00;3.45;;;1.90;;
7444;SDS011;3764;48.126;11.594;2023-02-26T05:28:29;3.25;;;2.05;;
7444;SDS011;3764;48.126;11.594;2023-02-26T05:30:58;2.00;;;1.45;;
7444;SDS011;3764;48.126;11.594;2023-02-26T05:33:25;2.75;;;1.80;;
7444;SDS011;3764;48.126;11.594;2023-02-26T05:35:52;2.88;;;1.70;;
7444;SDS011;3764;48.126;11.594;2023-02-26T05:38:19;4.05;;;2.03;;
7444;SDS011;3764;48.126;11.594;2023-02-26T05:40:46;1.90;;;1.40;;
7444;SDS011;3764;48.126;11.594;2023-02-26T05:43:14;3.38;;;2.03;;
7444;SDS011;3764;48.126;11.594;2023-02-26T05:45:42;3.75;;;1.90;;
7444;SDS011;3764;48.126;11.594;2023-02-26T05:48:09;3.13;;;1.83;;
7444;SDS011;3764;48.126;11.594;2023-02-26T05:50:37;3.28;;;1.70;;
7444;SDS011;3764;48.126;11.594;2023-02-26T05:53:04;3.65;;;2.17;;
7444;SDS011;3764;48.126;11.594;2023-02-26T05:55:31;3.80;;;2.13;;
7444;SDS011;3764;48.126;11.594;2023-02-26T05:57:58;2.92;;;2.40;;
7444;SDS011;3764;48.126;11.594;2023-02-26T06:00:26;4.15;;;2.30;;
7444;SDS011;3764;48.126;11.594;2023-02-26T06:02:54;4.40;;;2.13;;
7444;SDS011;3764;48.126;11.594;2023-02-26T06:05:21;2.75;;;2.50;;
7444;SDS011;3764;48.126;11.594;2023-02-26T06:07:48;5.10;;;2.50;;
7444;SDS011;3764;48.126;11.594;2023-02-26T06:10:16;5.47;;;2.80;;
7444;SDS011;3764;48.126;11.594;2023-02-26T06:12:43;3.15;;;2.13;;
7444;SDS011;3764;48.126;11.594;2023-02-26T06:15:11;3.70;;;1.92;;
7444;SDS011;3764;48.126;11.594;2023-02-26T06:17:38;3.78;;;2.30;;
7444;SDS011;3764;48.126;11.594;2023-02-26T06:20:07;4.30;;;2.60;;
7444;SDS011;3764;48.126;11.594;2023-02-26T06:22:35;5.88;;;2.65;;
7444;SDS011;3764;48.126;11.594;2023-02-26T06:25:03;5.72;;;2.20;;
7444;SDS011;3764;48.126;11.594;2023-02-26T06:27:30;4.78;;;2.22;;
7444;SDS011;3764;48.126;11.594;2023-02-26T06:29:57;3.30;;;1.90;;
7444;SDS011;3764;48.126;11.594;2023-02-26T06:32:24;2.17;;;1.50;;
7444;SDS011;3764;48.126;11.594;2023-02-26T06:34:51;3.35;;;2.30;;
7444;SDS011;3764;48.126;11.594;2023-02-26T06:37:20;3.85;;;2.25;;
7444;SDS011;3764;48.126;11.594;2023-02-26T06:39:47;4.72;;;1.90;;
7444;SDS011;3764;48.126;11.594;2023-02-26T06:42:14;3.47;;;2.17;;
7444;SDS011;3764;48.126;11.594;2023-02-26T06:44:41;5.93;;;2.45;;
7444;SDS011;3764;48.126;11.594;2023-02-26T06:47:08;5.22;;;2.10;;
7444;SDS011;3764;48.126;11.594;2023-02-26T06:49:36;3.22;;;1.90;;
7444;SDS011;3764;48.126;11.594;2023-02-26T06:52:03;6.22;;;2.33;;
7444;SDS011;3764;48.126;11.594;2023-02-26T06:54:32;2.30;;;1.95;;
7444;SDS011;3764;48.126;11.594;2023-02-26T06:56:59;2.75;;;1.73;;
7444;SDS011;3764;48.126;11.594;2023-02-26T06:59:27;3.42;;;2.00;;
7444;SDS011;3764;48.126;11.594;2023-02-26T07:01:54;2.60;;;1.85;;
7444;SDS011;3764;48.126;11.594;2023-02-26T07:04:22;4.32;;;1.90;;
7444;SDS011;3764;48.126;11.594;2023-02-26T07:06:49;2.33;;;2.08;;
7444;SDS011;3764;48.126;11.594;2023-02-26T07:09:16;5.82;;;1.98;;
7444;SDS011;3764;48.126;11.594;2023-02-26T07:11:46;2.65;;;2.10;;
7444;SDS011;3764;48.126;11.594;2023-02-26T07:14:13;4.90;;;2.40;;
7444;SDS011;3764;48.126;11.594;2023-02-26T07:16:40;2.67;;;1.95;;
7444;SDS011;3764;48.126;11.594;2023-02-26T07:19:07;2.30;;;2.08;;
7444;SDS011;3764;48.126;11.594;2023-02-26T07:21:34;2.97;;;2.35;;
7444;SDS011;3764;48.126;11.594;2023-02-26T07:24:01;3.28;;;2.10;;
7444;SDS011;3764;48.126;11.594;2023-02-26T07:26:28;6.50;;;2.33;;
7444;SDS011;3764;48.126;11.594;2023-02-26T07:28:56;2.97;;;1.90;;
7444;SDS011;3764;48.126;11.594;2023-02-26T07:31:23;4.45;;;2.30;;
7444;SDS011;3764;48.126;11.594;2023-02-26T07:33:50;3.30;;;2.40;;
7444;SDS011;3764;48.126;11.594;2023-02-26T07:36:18;5.22;;;2.42;;
7444;SDS011;3764;48.126;11.594;2023-02-26T07:38:45;2.33;;;2.13;;
7444;SDS011;3764;48.126;11.594;2023-02-26T07:41:12;4.30;;;2.25;;
7444;SDS011;3764;48.126;11.594;2023-02-26T07:43:39;3.88;;;2.33;;
7444;SDS011;3764;48.126;11.594;2023-02-26T07:46:08;2.88;;;2.00;;
7444;SDS011;3764;48.126;11.594;2023-02-26T07:48:35;3.17;;;2.38;;
7444;SDS011;3764;48.126;11.594;2023-02-26T07:51:02;2.88;;;2.67;;
7444;SDS011;3764;48.126;11.594;2023-02-26T07:53:31;2.88;;;2.45;;
7444;SDS011;3764;48.126;11.594;2023-02-26T07:55:59;3.50;;;2.05;;
7444;SDS011;3764;48.126;11.594;2023-02-26T07:58:26;3.67;;;1.92;;
7444;SDS011;3764;48.126;11.594;2023-02-26T08:00:53;2.90;;;2.33;;
7444;SDS011;3764;48.126;11.594;2023-02-26T08:03:22;5.00;;;2.50;;
7444;SDS011;3764;48.126;11.594;2023-02-26T08:05:49;6.30;;;2.10;;
7444;SDS011;3764;48.126;11.594;2023-02-26T08:08:16;5.90;;;2.97;;
7444;SDS011;3764;48.126;11.594;2023-02-26T08:10:43;6.47;;;2.40;;
7444;SDS011;3764;48.126;11.594;2023-02-26T08:13:10;2.78;;;2.22;;
7444;SDS011;3764;48.126;11.594;2023-02-26T08:15:37;4.38;;;2.55;;
7444;SDS011;3764;48.126;11.594;2023-02-26T08:18:08;7.53;;;2.45;;
7444;SDS011;3764;48.126;11.594;2023-02-26T08:20:36;10.40;;;2.55;;
7444;SDS011;3764;48.126;11.594;2023-02-26T08:23:03;5.05;;;3.03;;
7444;SDS011;3764;48.126;11.594;2023-02-26T08:25:30;4.90;;;2.80;;
7444;SDS011;3764;48.126;11.594;2023-02-26T08:27:57;4.85;;;2.75;;
7444;SDS011;3764;48.126;11.594;2023-02-26T08:30:25;4.22;;;1.90;;
7444;SDS011;3764;48.126;11.594;2023-02-26T08:32:52;3.38;;;2.80;;
7444;SDS011;3764;48.126;11.594;2023-02-26T08:35:19;3.88;;;2.80;;
7444;SDS011;3764;48.126;11.594;2023-02-26T08:37:48;3.28;;;2.60;;
7444;SDS011;3764;48.126;11.594;2023-02-26T08:40:15;5.22;;;2.58;;
7444;SDS011;3764;48.126;11.594;2023-02-26T08:42:42;3.45;;;2.65;;
7444;SDS011;3764;48.126;11.594;2023-02-26T08:45:10;4.50;;;2.50;;
7444;SDS011;3764;48.126;11.594;2023-02-26T08:47:37;4.70;;;2.50;;
7444;SDS011;3764;48.126;11.594;2023-02-26T08:50:06;7.45;;;3.47;;
7444;SDS011;3764;48.126;11.594;2023-02-26T08:52:34;3.90;;;2.80;;
7444;SDS011;3764;48.126;11.594;2023-02-26T08:55:04;2.90;;;2.65;;
7444;SDS011;3764;48.126;11.594;2023-02-26T08:57:32;3.97;;;2.53;;
7444;SDS011;3764;48.126;11.594;2023-02-26T08:59:59;4.18;;;2.83;;
7444;SDS011;3764;48.126;11.594;2023-02-26T09:02:29;5.07;;;3.45;;
7444;SDS011;3764;48.126;11.594;2023-02-26T09:04:56;3.95;;;2.70;;
7444;SDS011;3764;48.126;11.594;2023-02-26T09:07:23;5.18;;;3.15;;
7444;SDS011;3764;48.126;11.594;2023-02-26T09:09:50;3.65;;;2.90;;
7444;SDS011;3764;48.126;11.594;2023-02-26T09:12:18;4.10;;;3.20;;
7444;SDS011;3764;48.126;11.594;2023-02-26T09:14:45;2.80;;;2.25;;
7444;SDS011;3764;48.126;11.594;2023-02-26T09:17:12;3.92;;;3.20;;
7444;SDS011;3764;48.126;11.594;2023-02-26T09:19:39;3.75;;;2.75;;
7444;SDS011;3764;48.126;11.594;2023-02-26T09:22:06;5.50;;;2.97;;
7444;SDS011;3764;48.126;11.594;2023-02-26T09:24:34;4.00;;;2.85;;
7444;SDS011;3764;48.126;11.594;2023-02-26T09:27:01;5.30;;;3.53;;
7444;SDS011;3764;48.126;11.594;2023-02-26T09:29:29;4.38;;;3.60;;
7444;SDS011;3764;48.126;11.594;2023-02-26T09:31:56;5.65;;;3.53;;
7444;SDS011;3764;48.126;11.594;2023-02-26T09:34:24;4.32;;;3.92;;
7444;SDS011;3764;48.126;11.594;2023-02-26T09:36:51;4.65;;;4.05;;
7444;SDS011;3764;48.126;11.594;2023-02-26T09:39:18;4.47;;;2.92;;
7444;SDS011;3764;48.126;11.594;2023-02-26T09:41:46;3.20;;;2.63;;
7444;SDS011;3764;48.126;11.594;2023-02-26T09:44:16;6.20;;;3.40;;
7444;SDS011;3764;48.126;11.594;2023-02-26T09:46:50;5.40;;;3.90;;
7444;SDS011;3764;48.126;11.594;2023-02-26T09:49:24;4.32;;;3.90;;
7444;SDS011;3764;48.126;11.594;2023-02-26T09:52:11;4.80;;;3.55;;
7444;SDS011;3764;48.126;11.594;2023-02-26T09:54:45;4.18;;;3.72;;
7444;SDS011;3764;48.126;11.594;2023-02-26T09:57:19;4.57;;;3.60;;
7444;SDS011;3764;48.126;11.594;2023-02-26T09:59:53;4.95;;;4.00;;
7444;SDS011;3764;48.126;11.594;2023-02-26T10:02:23;5.13;;;3.20;;
7444;SDS011;3764;48.126;11.594;2023-02-26T10:05:00;4.80;;;3.25;;
7444;SDS011;3764;48.126;11.594;2023-02-26T10:07:37;4.15;;;3.10;;
7444;SDS011;3764;48.126;11.594;2023-02-26T10:10:14;3.83;;;3.45;;
7444;SDS011;3764;48.126;11.594;2023-02-26T10:12:46;4.80;;;3.42;;
7444;SDS011;3764;48.126;11.594;2023-02-26T10:15:17;4.00;;;3.60;;
7444;SDS011;3764;48.126;11.594;2023-02-26T10:17:55;3.78;;;3.28;;
7444;SDS011;3764;48.126;11.594;2023-02-26T10:20:28;5.13;;;3.50;;
7444;SDS011;3764;48.126;11.594;2023-02-26T10:23:01;4.93;;;3.85;;
7444;SDS011;3764;48.126;11.594;2023-02-26T10:25:34;3.25;;;2.95;;
7444;SDS011;3764;48.126;11.594;2023-02-26T10:28:07;6.95;;;4.82;;
7444;SDS011;3764;48.126;11.594;2023-02-26T10:30:50;5.00;;;4.00;;
7444;SDS011;3764;48.126;11.594;2023-02-26T10:33:26;7.40;;;3.75;;
7444;SDS011;3764;48.126;11.594;2023-02-26T10:36:01;6.97;;;3.53;;
7444;SDS011;3764;48.126;11.594;2023-02-26T10:38:36;5.15;;;3.90;;
7444;SDS011;3764;48.126;11.594;2023-02-26T10:41:04;4.90;;;3.80;;
7444;SDS011;3764;48.126;11.594;2023-02-26T10:43:36;5.45;;;3.70;;
7444;SDS011;3764;48.126;11.594;2023-02-26T10:46:09;4.80;;;3.60;;
7444;SDS011;3764;48.126;11.594;2023-02-26T10:48:58;4.50;;;3.63;;
7444;SDS011;3764;48.126;11.594;2023-02-26T10:51:38;8.75;;;4.00;;
7444;SDS011;3764;48.126;11.594;2023-02-26T10:54:11;4.25;;;3.53;;
7444;SDS011;3764;48.126;11.594;2023-02-26T10:56:42;3.60;;;3.25;;
7444;SDS011;3764;48.126;11.594;2023-02-26T10:59:09;4.00;;;3.47;;
7444;SDS011;3764;48.126;11.594;2023-02-26T11:01:36;3.80;;;2.90;;
7444;SDS011;3764;48.126;11.594;2023-02-26T11:04:06;5.45;;;3.65;;
7444;SDS011;3764;48.126;11.594;2023-02-26T11:06:36;3.70;;;3.30;;
7444;SDS011;3764;48.126;11.594;2023-02-26T11:09:12;3.63;;;3.30;;
7444;SDS011;3764;48.126;11.594;2023-02-26T11:11:46;4.95;;;4.10;;
7444;SDS011;3764;48.126;11.594;2023-02-26T11:14:16;4.22;;;3.83;;
7444;SDS011;3764;48.126;11.594;2023-02-26T11:16:45;4.43;;;3.72;;
7444;SDS011;3764;48.126;11.594;2023-02-26T11:19:16;5.00;;;4.28;;
7444;SDS011;3764;48.126;11.594;2023-02-26T11:21:50;5.57;;;4.97;;
7444;SDS011;3764;48.126;11.594;2023-02-26T11:24:18;4.80;;;4.07;;
7444;SDS011;3764;48.126;11.594;2023-02-26T11:26:53;5.03;;;4.53;;
7444;SDS011;3764;48.126;11.594;2023-02-26T11:29:23;4.25;;;3.85;;
7444;SDS011;3764;48.126;11.594;2023-02-26T11:31:51;8.32;;;4.25;;
7444;SDS011;3764;48.126;11.594;2023-02-26T11:34:22;4.38;;;3.85;;
7444;SDS011;3764;48.126;11.594;2023-02-26T11:36:51;6.97;;;4.25;;
7444;SDS011;3764;48.126;11.594;2023-02-26T11:39:21;6.28;;;4.13;;
7444;SDS011;3764;48.126;11.594;2023-02-26T11:41:50;4.53;;;4.13;;
7444;SDS011;3764;48.126;11.594;2023-02-26T11:44:21;4.22;;;3.83;;
7444;SDS011;3764;48.126;11.594;2023-02-26T11:47:01;4.45;;;4.03;;
7444;SDS011;3764;48.126;11.594;2023-02-26T11:49:32;11.65;;;4.47;;
7444;SDS011;3764;48.126;11.594;2023-02-26T11:52:02;5.55;;;4.50;;
7444;SDS011;3764;48.126;11.594;2023-02-26T11:54:33;5.28;;;4.22;;
7444;SDS011;3764;48.126;11.594;2023-02-26T11:57:04;5.28;;;3.72;;
7444;SDS011;3764;48.126;11.594;2023-02-26T11:59:33;7.65;;;4.10;;
7444;SDS011;3764;48.126;11.594;2023-02-26T12:02:09;5.70;;;3.80;;
7444;SDS011;3764;48.126;11.594;2023-02-26T12:04:41;4.70;;;4.30;;
7444;SDS011;3764;48.126;11.594;2023-02-26T12:07:10;5.38;;;4.00;;
7444;SDS011;3764;48.126;11.594;2023-02-26T12:09:40;5.47;;;4.32;;
7444;SDS011;3764;48.126;11.594;2023-02-26T12:12:17;3.15;;;2.85;;
7444;SDS011;3764;48.126;11.594;2023-02-26T12:17:44;4.10;;;2.70;;
7444;SDS011;3764;48.126;11.594;2023-02-26T12:20:30;3.33;;;3.00;;
7444;SDS011;3764;48.126;11.594;2023-02-26T12:23:09;2.80;;;2.60;;
7444;SDS011;3764;48.126;11.594;2023-02-26T12:29:04;3.88;;;3.03;;
7444;SDS011;3764;48.126;11.594;2023-02-26T12:34:51;5.00;;;3.60;;
7444;SDS011;3764;48.126;11.594;2023-02-26T12:37:36;3.63;;;3.33;;
7444;SDS011;3764;48.126;11.594;2023-02-26T12:40:18;4.50;;;4.10;;
7444;SDS011;3764;48.126;11.594;2023-02-26T12:43:10;3.10;;;2.80;;
7444;SDS011;3764;48.126;11.594;2023-02-26T12:45:44;3.30;;;3.00;;
7444;SDS011;3764;48.126;11.594;2023-02-26T12:48:30;4.10;;;3.40;;
7444;SDS011;3764;48.126;11.594;2023-02-26T12:51:17;4.43;;;3.60;;
7444;SDS011;3764;48.126;11.594;2023-02-26T12:54:02;3.50;;;3.20;;
7444;SDS011;3764;48.126;11.594;2023-02-26T12:56:47;4.22;;;3.58;;
7444;SDS011;3764;48.126;11.594;2023-02-26T12:59:41;3.10;;;2.13;;
7444;SDS011;3764;48.126;11.594;2023-02-26T13:02:28;2.92;;;2.50;;
7444;SDS011;3764;48.126;11.594;2023-02-26T13:05:23;3.25;;;2.90;;
7444;SDS011;3764;48.126;11.594;2023-02-26T13:08:06;2.20;;;2.00;;
7444;SDS011;3764;48.126;11.594;2023-02-26T13:13:43;4.95;;;2.50;;
7444;SDS011;3764;48.126;11.594;2023-02-26T13:16:28;3.13;;;2.58;;
7444;SDS011;3764;48.126;11.594;2023-02-26T13:19:06;3.97;;;2.63;;
7444;SDS011;3764;48.126;11.594;2023-02-26T13:21:40;3.20;;;2.03;;
7444;SDS011;3764;48.126;11.594;2023-02-26T13:24:11;2.90;;;2.53;;
7444;SDS011;3764;48.126;11.594;2023-02-26T13:26:42;2.35;;;2.15;;
7444;SDS011;3764;48.126;11.594;2023-02-26T13:29:13;3.00;;;2.30;;
7444;SDS011;3764;48.126;11.594;2023-02-26T13:31:44;2.50;;;2.20;;
7444;SDS011;3764;48.126;11.594;2023-02-26T13:34:17;2.60;;;2.40;;
7444;SDS011;3764;48.126;11.594;2023-02-26T13:36:48;2.30;;;2.10;;
7444;SDS011;3764;48.126;11.594;2023-02-26T13:42:13;3.03;;;2.53;;
7444;SDS011;3764;48.126;11.594;2023-02-26T13:44:51;6.15;;;2.80;;
7444;SDS011;3764;48.126;11.594;2023-02-26T13:47:35;2.88;;;2.10;;
7444;SDS011;3764;48.126;11.594;2023-02-26T13:50:25;4.43;;;2.67;;
7444;SDS011;3764;48.126;11.594;2023-02-26T13:53:00;2.25;;;2.05;;
7444;SDS011;3764;48.126;11.594;2023-02-26T13:55:40;4.80;;;2.85;;
7444;SDS011;3764;48.126;11.594;2023-02-26T13:58:34;5.32;;;2.63;;
7444;SDS011;3764;48.126;11.594;2023-02-26T14:01:09;2.95;;;2.65;;
7444;SDS011;3764;48.126;11.594;2023-02-26T14:03:40;3.55;;;3.13;;
7444;SDS011;3764;48.126;11.594;2023-02-26T14:06:21;4.45;;;2.70;;
7444;SDS011;3764;48.126;11.594;2023-02-26T14:09:02;5.63;;;2.75;;
7444;SDS011;3764;48.126;11.594;2023-02-26T14:14:15;5.57;;;2.95;;
7444;SDS011;3764;48.126;11.594;2023-02-26T14:16:54;3.92;;;2.50;;
7444;SDS011;3764;48.126;11.594;2023-02-26T14:20:14;4.63;;;2.25;;
7444;SDS011;3764;48.126;11.594;2023-02-26T14:22:46;3.58;;;2.58;;
7444;SDS011;3764;48.126;11.594;2023-02-26T14:25:17;3.78;;;2.70;;
7444;SDS011;3764;48.126;11.594;2023-02-26T14:27:47;3.67;;;2.05;;
7444;SDS011;3764;48.126;11.594;2023-02-26T14:30:16;3.13;;;2.60;;
7444;SDS011;3764;48.126;11.594;2023-02-26T14:32:53;5.30;;;3.20;;
7444;SDS011;3764;48.126;11.594;2023-02-26T14:35:34;2.83;;;2.33;;
7444;SDS011;3764;48.126;11.594;2023-02-26T14:38:05;3.55;;;2.47;;
7444;SDS011;3764;48.126;11.594;2023-02-26T14:40:38;3.53;;;2.47;;
7444;SDS011;3764;48.126;11.594;2023-02-26T14:43:10;2.83;;;2.40;;
7444;SDS011;3764;48.126;11.594;2023-02-26T14:45:44;2.65;;;2.10;;
7444;SDS011;3764;48.126;11.594;2023-02-26T14:48:13;5.20;;;3.05;;
7444;SDS011;3764;48.126;11.594;2023-02-26T14:50:46;3.35;;;2.53;;
7444;SDS011;3764;48.126;11.594;2023-02-26T14:53:38;4.03;;;2.80;;
7444;SDS011;3764;48.126;11.594;2023-02-26T14:56:17;4.63;;;2.67;;
7444;SDS011;3764;48.126;11.594;2023-02-26T14:58:59;3.47;;;2.78;;
7444;SDS011;3764;48.126;11.594;2023-02-26T15:01:45;3.00;;;1.90;;
7444;SDS011;3764;48.126;11.594;2023-02-26T15:04:39;4.18;;;2.88;;
7444;SDS011;3764;48.126;11.594;2023-02-26T15:07:34;3.75;;;2.53;;
7444;SDS011;3764;48.126;11.594;2023-02-26T15:13:11;2.97;;;2.17;;
7444;SDS011;3764;48.126;11.594;2023-02-26T15:15:51;3.78;;;2.10;;
7444;SDS011;3764;48.126;11.594;2023-02-26T15:18:32;3.47;;;2.22;;
7444;SDS011;3764;48.126;11.594;2023-02-26T15:21:27;4.38;;;2.40;;
7444;SDS011;3764;48.126;11.594;2023-02-26T15:24:02;3.35;;;2.35;;
7444;SDS011;3764;48.126;11.594;2023-02-26T15:26:32;3.25;;;2.95;;
7444;SDS011;3764;48.126;11.594;2023-02-26T15:29:02;3.38;;;2.40;;
7444;SDS011;3764;48.126;11.594;2023-02-26T15:31:32;2.40;;;2.20;;
7444;SDS011;3764;48.126;11.594;2023-02-26T15:34:01;3.35;;;2.40;;
7444;SDS011;3764;48.126;11.594;2023-02-26T15:36:30;2.60;;;2.17;;
7444;SDS011;3764;48.126;11.594;2023-02-26T15:38:58;3.25;;;2.80;;
7444;SDS011;3764;48.126;11.594;2023-02-26T15:41:28;4.20;;;3.80;;
7444;SDS011;3764;48.126;11.594;2023-02-26T15:43:58;4.68;;;3.53;;
7444;SDS011;3764;48.126;11.594;2023-02-26T15:46:28;5.93;;;3.67;;
7444;SDS011;3764;48.126;11.594;2023-02-26T15:49:01;6.82;;;4.25;;